createdAt,value
2022-11-28T00:01:09.873Z,77.00
2022-11-28T00:03:36.259Z,77.37
2022-11-28T00:06:07.408Z,76.67
2022-11-28T00:08:35.218Z,76.59
2022-11-28T00:11:06.621Z,76.41
2022-11-28T00:13:34.282Z,76.34
2022-11-28T00:16:02.645Z,76.35
2022-11-28T00:18:29.486Z,77.11
2022-11-28T00:21:01.060Z,75.92
2022-11-28T00:23:28.093Z,76.38
2022-11-28T00:25:59.271Z,76.28
2022-11-28T00:28:25.722Z,76.70
2022-11-28T00:30:52.225Z,77.58
2022-11-28T00:33:18.659Z,76.47
2022-11-28T00:35:45.015Z,76.82
2022-11-28T00:38:11.417Z,76.55
2022-11-28T00:40:37.909Z,75.47
2022-11-28T00:43:04.382Z,75.81
2022-11-28T00:45:31.037Z,75.80
2022-11-28T00:47:57.496Z,76.19
2022-11-28T00:50:25.146Z,76.35
2022-11-28T00:52:51.669Z,75.92
2022-11-28T00:55:18.101Z,75.70
2022-11-28T00:57:44.527Z,75.07
2022-11-28T01:00:11.381Z,75.29
2022-11-28T01:02:37.879Z,74.92
2022-11-28T01:05:04.598Z,74.97
2022-11-28T01:07:33.128Z,75.34
2022-11-28T01:09:59.562Z,76.35
2022-11-28T01:12:25.936Z,75.66
2022-11-28T01:14:53.503Z,75.74
2022-11-28T01:17:19.839Z,74.71
2022-11-28T01:19:46.305Z,75.15
2022-11-28T01:22:12.801Z,75.68
2022-11-28T01:24:39.434Z,75.69
2022-11-28T01:27:06.218Z,75.34
2022-11-28T01:29:32.664Z,74.63
2022-11-28T01:32:00.051Z,74.96
2022-11-28T01:34:26.828Z,75.43
2022-11-28T01:36:53.166Z,75.59
2022-11-28T01:39:20.904Z,75.47
2022-11-28T01:41:47.666Z,75.07
2022-11-28T01:44:13.965Z,74.99
2022-11-28T01:46:40.642Z,74.80
2022-11-28T01:49:17.572Z,74.76
2022-11-28T01:52:00.906Z,75.69
2022-11-28T01:54:29.529Z,75.42
2022-11-28T01:57:02.902Z,75.41
2022-11-28T01:59:35.243Z,74.90
2022-11-28T02:02:06.309Z,75.03
2022-11-28T02:04:34.354Z,75.16
2022-11-28T02:07:00.934Z,75.83
2022-11-28T02:09:27.429Z,75.36
2022-11-28T02:12:21.623Z,75.06
2022-11-28T02:14:53.813Z,74.72
2022-11-28T02:17:43.930Z,75.59
2022-11-28T02:20:28.372Z,74.96
2022-11-28T02:22:59.538Z,75.56
2022-11-28T02:26:07.513Z,75.40
2022-11-28T02:29:19.087Z,75.17
2022-11-28T02:32:15.211Z,75.31
2022-11-28T02:35:16.729Z,75.24
2022-11-28T02:38:01.723Z,75.64
2022-11-28T02:40:37.690Z,75.73
2022-11-28T02:43:08.124Z,75.71
2022-11-28T02:45:43.552Z,75.56
2022-11-28T02:48:24.224Z,76.04
2022-11-28T02:51:01.210Z,75.28
2022-11-28T02:53:31.970Z,75.52
2022-11-28T02:55:59.691Z,75.56
2022-11-28T02:58:26.511Z,75.72
2022-11-28T03:00:53.262Z,75.30
2022-11-28T03:03:41.128Z,75.06
2022-11-28T03:06:22.921Z,75.24
2022-11-28T03:09:18.177Z,74.73
2022-11-28T03:12:15.500Z,73.79
2022-11-28T03:14:54.849Z,74.20
2022-11-28T03:17:25.056Z,74.05
2022-11-28T03:20:20.844Z,74.21
2022-11-28T03:23:02.862Z,73.81
2022-11-28T03:25:47.623Z,73.59
2022-11-28T03:28:23.072Z,73.64
2022-11-28T03:30:54.855Z,74.05
2022-11-28T03:33:25.271Z,74.89
2022-11-28T03:35:58.150Z,74.18
2022-11-28T03:38:34.283Z,73.85
2022-11-28T03:41:06.987Z,73.98
2022-11-28T03:43:40.182Z,73.58
2022-11-28T03:46:11.568Z,72.75
2022-11-28T03:48:54.505Z,72.77
2022-11-28T03:51:29.073Z,73.09
2022-11-28T03:54:08.076Z,72.84
2022-11-28T03:56:45.743Z,72.75
2022-11-28T03:59:25.618Z,72.19
2022-11-28T04:01:54.891Z,73.01
2022-11-28T04:04:47.524Z,72.34
2022-11-28T04:07:23.461Z,72.04
2022-11-28T04:10:00.443Z,72.26
2022-11-28T04:12:39.954Z,72.03
2022-11-28T04:15:11.948Z,72.18
2022-11-28T04:17:49.666Z,72.85
2022-11-28T04:20:27.855Z,72.69
2022-11-28T04:23:00.923Z,72.90
2022-11-28T04:25:29.766Z,73.21
2022-11-28T04:28:01.437Z,73.05
2022-11-28T04:30:28.015Z,73.03
2022-11-28T04:32:59.383Z,73.56
2022-11-28T04:35:32.457Z,73.47
2022-11-28T04:38:01.542Z,72.78
2022-11-28T04:40:31.770Z,73.12
2022-11-28T04:43:02.965Z,72.00
2022-11-28T04:45:34.313Z,72.44
2022-11-28T04:48:01.753Z,72.86
2022-11-28T04:50:41.099Z,73.74
2022-11-28T04:53:19.451Z,73.34
2022-11-28T04:55:57.938Z,73.61
2022-11-28T04:58:43.418Z,73.21
2022-11-28T05:01:15.574Z,73.28
2022-11-28T05:03:42.980Z,73.40
2022-11-28T05:06:09.696Z,73.28
2022-11-28T05:08:36.151Z,73.37
2022-11-28T05:11:02.657Z,73.72
2022-11-28T05:13:29.044Z,73.65
2022-11-28T05:15:55.436Z,73.27
2022-11-28T05:18:21.913Z,73.08
2022-11-28T05:20:48.525Z,72.61
2022-11-28T05:23:14.893Z,71.91
2022-11-28T05:25:41.324Z,72.29
2022-11-28T05:28:08.644Z,72.03
2022-11-28T05:30:35.080Z,73.09
2022-11-28T05:33:02.051Z,71.97
2022-11-28T05:35:28.478Z,72.88
2022-11-28T05:37:54.927Z,72.71
2022-11-28T05:40:21.263Z,72.41
2022-11-28T05:42:47.676Z,73.00
2022-11-28T05:45:14.132Z,73.29
2022-11-28T05:47:40.534Z,73.56
2022-11-28T05:50:08.126Z,72.98
2022-11-28T05:52:34.534Z,73.37
2022-11-28T05:55:01.547Z,73.37
2022-11-28T05:57:29.893Z,73.36
2022-11-28T05:59:56.711Z,73.52
2022-11-28T06:02:23.412Z,72.90
2022-11-28T06:04:49.912Z,74.05
2022-11-28T06:07:16.424Z,73.98
2022-11-28T06:09:43.166Z,74.22
2022-11-28T06:12:09.666Z,74.19
2022-11-28T06:14:36.142Z,74.17
2022-11-28T06:17:02.564Z,73.68
2022-11-28T06:19:29.106Z,74.32
2022-11-28T06:21:56.381Z,73.61
2022-11-28T06:24:22.962Z,73.47
2022-11-28T06:26:49.311Z,73.32
2022-11-28T06:29:15.843Z,72.39
2022-11-28T06:31:42.261Z,72.46
2022-11-28T06:34:11.704Z,73.34
2022-11-28T06:36:38.133Z,73.36
2022-11-28T06:39:05.186Z,73.77
2022-11-28T06:41:31.621Z,73.53
2022-11-28T06:43:58.005Z,73.29
2022-11-28T06:46:24.449Z,73.13
2022-11-28T06:48:52.195Z,73.26
2022-11-28T06:51:19.700Z,73.39
2022-11-28T06:53:46.055Z,73.29
2022-11-28T06:56:16.563Z,73.64
2022-11-28T06:58:44.031Z,73.06
2022-11-28T07:01:14.070Z,73.07
2022-11-28T07:03:41.092Z,73.08
2022-11-28T07:06:08.803Z,72.54
2022-11-28T07:08:35.511Z,72.53
2022-11-28T07:11:15.848Z,71.87
2022-11-28T07:13:43.639Z,72.22
2022-11-28T07:16:27.497Z,71.90
2022-11-28T07:18:56.871Z,71.81
2022-11-28T07:21:24.017Z,71.46
2022-11-28T07:23:51.093Z,70.82
2022-11-28T07:26:19.191Z,71.04
2022-11-28T07:28:46.428Z,71.06
2022-11-28T07:31:18.737Z,71.84
2022-11-28T07:33:47.695Z,71.56
2022-11-28T07:36:20.450Z,71.37
2022-11-28T07:38:48.672Z,70.48
2022-11-28T07:41:15.961Z,70.43
2022-11-28T07:43:44.120Z,71.19
2022-11-28T07:46:13.830Z,71.20
2022-11-28T07:48:40.719Z,70.81
2022-11-28T07:51:12.030Z,71.46
2022-11-28T07:53:39.611Z,71.70
2022-11-28T07:56:08.914Z,72.00
2022-11-28T07:58:36.470Z,71.50
2022-11-28T08:01:23.896Z,71.34
2022-11-28T08:03:52.267Z,71.57
2022-11-28T08:06:21.978Z,71.42
2022-11-28T08:08:49.449Z,71.46
2022-11-28T08:11:17.242Z,71.72
2022-11-28T08:13:44.572Z,71.63
2022-11-28T08:16:16.940Z,71.45
2022-11-28T08:18:44.307Z,70.59
2022-11-28T08:21:12.313Z,70.57
2022-11-28T08:23:39.832Z,71.52
2022-11-28T08:26:08.885Z,71.25
2022-11-28T08:28:35.974Z,71.24
2022-11-28T08:31:33.222Z,70.74
2022-11-28T08:34:01.971Z,70.68
2022-11-28T08:36:29.517Z,69.61
2022-11-28T08:39:16.557Z,69.24
2022-11-28T08:41:43.165Z,69.71
2022-11-28T08:44:09.515Z,70.73
2022-11-28T08:46:36.610Z,70.31
2022-11-28T08:49:04.590Z,70.10
2022-11-28T08:51:31.437Z,70.34
2022-11-28T08:53:59.720Z,70.83
2022-11-28T08:56:26.830Z,69.94
2022-11-28T08:58:53.386Z,69.35
2022-11-28T09:01:22.567Z,69.64
2022-11-28T09:03:50.005Z,70.16
2022-11-28T09:06:17.883Z,70.32
2022-11-28T09:08:45.082Z,69.81
2022-11-28T09:11:14.169Z,69.32
2022-11-28T09:13:40.859Z,68.93
2022-11-28T09:16:07.639Z,69.11
2022-11-28T09:18:34.378Z,69.92
2022-11-28T09:21:02.053Z,69.17
2022-11-28T09:23:29.211Z,68.79
2022-11-28T09:25:56.170Z,68.46
2022-11-28T09:28:23.763Z,69.21
2022-11-28T09:30:50.407Z,68.72
2022-11-28T09:33:16.796Z,69.60
2022-11-28T09:35:43.306Z,69.78
2022-11-28T09:38:09.670Z,69.03
2022-11-28T09:40:42.391Z,69.25
2022-11-28T09:43:16.947Z,69.48
2022-11-28T09:45:45.422Z,69.23
2022-11-28T09:48:30.204Z,69.03
2022-11-28T09:51:06.178Z,68.90
2022-11-28T09:53:44.897Z,68.32
2022-11-28T09:56:15.570Z,68.90
2022-11-28T09:58:57.817Z,68.87
2022-11-28T10:01:26.864Z,68.93
2022-11-28T10:04:02.917Z,67.85
2022-11-28T10:07:04.552Z,68.31
2022-11-28T10:09:46.988Z,68.27
2022-11-28T10:12:32.285Z,68.20
2022-11-28T10:15:14.135Z,67.68
2022-11-28T10:17:44.277Z,67.97
2022-11-28T10:20:32.980Z,67.71
2022-11-28T10:23:05.299Z,67.70
2022-11-28T10:25:51.195Z,68.22
2022-11-28T10:28:29.631Z,67.68
2022-11-28T10:31:12.301Z,67.23
2022-11-28T10:33:50.159Z,67.42
2022-11-28T10:36:28.143Z,67.45
2022-11-28T10:38:54.568Z,67.94
2022-11-28T10:41:28.719Z,67.77
2022-11-28T10:44:28.869Z,67.55
2022-11-28T10:47:05.754Z,67.32
2022-11-28T10:49:52.594Z,67.77
2022-11-28T10:52:57.002Z,67.15
2022-11-28T10:55:41.513Z,67.61
2022-11-28T10:58:15.343Z,68.84
2022-11-28T11:00:45.380Z,69.02
2022-11-28T11:03:15.365Z,68.61
2022-11-28T11:05:42.403Z,68.80
2022-11-28T11:08:08.748Z,67.72
2022-11-28T11:10:51.885Z,67.68
2022-11-28T11:13:24.861Z,68.73
2022-11-28T11:15:59.208Z,68.65
2022-11-28T11:18:28.645Z,68.56
2022-11-28T11:21:14.589Z,68.46
2022-11-28T11:23:41.567Z,68.48
2022-11-28T11:26:33.248Z,68.38
2022-11-28T11:29:01.494Z,68.99
2022-11-28T11:31:31.569Z,68.61
2022-11-28T11:34:15.655Z,69.32
2022-11-28T11:36:42.456Z,69.66
2022-11-28T11:39:12.257Z,69.76
2022-11-28T11:41:41.335Z,70.47
2022-11-28T11:44:13.618Z,70.92
2022-11-28T11:47:08.739Z,70.56
2022-11-28T11:49:44.331Z,71.01
2022-11-28T11:52:22.678Z,71.68
2022-11-28T11:54:57.228Z,71.67
2022-11-28T11:57:49.695Z,71.84
2022-11-28T12:00:21.146Z,72.28
2022-11-28T12:03:03.108Z,71.68
2022-11-28T12:06:12.723Z,71.69
2022-11-28T12:08:43.446Z,72.19
2022-11-28T12:11:31.419Z,72.50
2022-11-28T12:14:04.690Z,72.21
2022-11-28T12:16:50.471Z,72.94
2022-11-28T12:19:34.389Z,72.41
2022-11-28T12:22:25.757Z,72.83
2022-11-28T12:25:04.921Z,73.06
2022-11-28T12:27:53.464Z,73.19
2022-11-28T12:30:43.375Z,73.24
2022-11-28T12:33:20.727Z,73.47
2022-11-28T12:36:14.804Z,73.92
2022-11-28T12:39:18.374Z,74.16
2022-11-28T12:42:18.978Z,74.56
2022-11-28T12:45:07.111Z,74.10
2022-11-28T12:48:01.966Z,74.79
2022-11-28T12:50:35.537Z,74.72
2022-11-28T12:53:16.768Z,75.36
2022-11-28T12:55:52.426Z,75.28
2022-11-28T12:58:40.660Z,75.77
2022-11-28T13:01:53.257Z,75.82
2022-11-28T13:04:56.987Z,75.92
2022-11-28T13:07:51.950Z,76.33
2022-11-28T13:10:28.873Z,76.53
2022-11-28T13:13:06.680Z,76.70
2022-11-28T13:15:48.080Z,76.52
2022-11-28T13:18:28.848Z,77.65
2022-11-28T13:21:09.747Z,77.36
2022-11-28T13:23:50.988Z,77.64
2022-11-28T13:26:42.602Z,77.34
2022-11-28T13:29:12.037Z,78.03
2022-11-28T13:31:49.815Z,78.21
2022-11-28T13:34:18.218Z,77.16
2022-11-28T13:40:19.783Z,77.55
2022-11-28T13:43:06.556Z,77.90
2022-11-28T13:45:52.711Z,77.89
2022-11-28T13:49:06.145Z,78.25
2022-11-28T13:51:30.602Z,78.43
2022-11-28T13:54:16.900Z,78.63
2022-11-28T13:56:49.007Z,78.44
2022-11-28T13:59:25.947Z,79.16
2022-11-28T14:01:58.439Z,78.51
2022-11-28T14:04:27.787Z,78.48
2022-11-28T14:07:02.221Z,78.91
2022-11-28T14:09:47.682Z,78.78
2022-11-28T14:12:26.769Z,78.95
2022-11-28T14:15:01.492Z,78.71
2022-11-28T14:17:38.029Z,79.13
2022-11-28T14:20:24.359Z,79.76
2022-11-28T14:23:20.192Z,79.71
2022-11-28T14:25:50.035Z,81.19
2022-11-28T14:28:26.340Z,80.63
2022-11-28T14:31:31.032Z,80.35
2022-11-28T14:34:00.698Z,80.05
2022-11-28T14:36:33.940Z,79.77
2022-11-28T14:39:07.372Z,79.31
2022-11-28T14:42:03.627Z,79.79
2022-11-28T14:44:50.677Z,80.40
2022-11-28T14:47:42.933Z,80.50
2022-11-28T14:50:09.682Z,80.47
2022-11-28T14:52:41.700Z,79.99
2022-11-28T14:55:12.950Z,80.23
2022-11-28T14:57:58.510Z,80.40
2022-11-28T15:00:31.818Z,80.84
2022-11-28T15:03:37.817Z,80.71
2022-11-28T15:06:20.806Z,80.42
2022-11-28T15:09:00.097Z,80.57
2022-11-28T15:11:37.429Z,80.70
2022-11-28T15:14:22.757Z,80.48
2022-11-28T15:16:53.069Z,80.93
2022-11-28T15:19:30.627Z,80.52
2022-11-28T15:21:57.507Z,80.73
2022-11-28T15:24:33.097Z,81.01
2022-11-28T15:27:08.810Z,81.00
2022-11-28T15:29:36.733Z,80.67
2022-11-28T15:32:04.919Z,80.83
2022-11-28T15:34:34.201Z,81.03
2022-11-28T15:37:05.595Z,80.85
2022-11-28T15:39:35.770Z,80.63
2022-11-28T15:42:05.083Z,81.13
2022-11-28T15:44:32.318Z,81.10
2022-11-28T15:47:01.433Z,80.86
2022-11-28T15:49:32.788Z,81.04
2022-11-28T15:52:02.756Z,80.90
2022-11-28T15:54:36.801Z,80.99
2022-11-28T15:57:05.275Z,80.60
2022-11-28T15:59:32.952Z,80.54
2022-11-28T16:02:15.083Z,80.66
2022-11-28T16:04:44.100Z,80.75
2022-11-28T16:07:14.876Z,80.94
2022-11-28T16:09:53.613Z,80.94
2022-11-28T16:12:20.167Z,80.52
2022-11-28T16:14:46.964Z,80.52
2022-11-28T16:17:19.983Z,80.97
2022-11-28T16:19:46.630Z,81.03
2022-11-28T16:22:19.436Z,81.16
2022-11-28T16:24:48.966Z,81.09
2022-11-28T16:27:38.873Z,81.30
2022-11-28T16:30:24.056Z,80.98
2022-11-28T16:32:52.259Z,80.95
2022-11-28T16:35:31.994Z,81.03
2022-11-28T16:38:25.102Z,81.10
2022-11-28T16:40:58.673Z,81.11
2022-11-28T16:43:36.326Z,81.26
2022-11-28T16:46:06.655Z,80.77
2022-11-28T16:48:38.332Z,80.58
2022-11-28T16:51:10.797Z,80.83
2022-11-28T16:53:45.946Z,81.04
2022-11-28T16:56:24.449Z,80.64
2022-11-28T16:59:12.279Z,80.08
2022-11-28T17:01:39.486Z,80.81
2022-11-28T17:04:06.376Z,80.94
2022-11-28T17:06:37.302Z,80.83
2022-11-28T17:09:09.782Z,80.93
2022-11-28T17:11:39.780Z,81.04
2022-11-28T17:14:13.037Z,80.75
2022-11-28T17:16:41.472Z,80.73
2022-11-28T17:19:07.939Z,80.67
2022-11-28T17:21:40.572Z,80.87
2022-11-28T17:24:15.933Z,81.21
2022-11-28T17:26:42.386Z,81.47
2022-11-28T17:29:13.252Z,81.38
2022-11-28T17:31:42.103Z,81.06
2022-11-28T17:34:19.008Z,80.99
2022-11-28T17:36:45.696Z,80.62
2022-11-28T17:39:17.126Z,80.64
2022-11-28T17:41:44.413Z,80.82
2022-11-28T17:44:17.646Z,80.67
2022-11-28T17:46:44.111Z,79.91
2022-11-28T17:49:10.703Z,80.26
2022-11-28T17:51:37.699Z,80.67
2022-11-28T17:54:04.444Z,81.11
2022-11-28T17:56:32.382Z,81.39
2022-11-28T17:59:00.232Z,81.28
2022-11-28T18:01:29.204Z,81.20
2022-11-28T18:03:58.920Z,81.09
2022-11-28T18:06:25.474Z,81.27
2022-11-28T18:08:53.261Z,81.06
2022-11-28T18:11:20.477Z,81.19
2022-11-28T18:13:47.823Z,79.64
2022-11-28T18:16:17.242Z,79.97
2022-11-28T18:18:44.238Z,80.39
2022-11-28T18:21:11.254Z,80.46
2022-11-28T18:23:39.717Z,80.09
2022-11-28T18:26:13.102Z,80.64
2022-11-28T18:28:41.201Z,80.61
2022-11-28T18:31:29.101Z,79.78
2022-11-28T18:34:01.623Z,80.68
2022-11-28T18:36:32.289Z,80.33
2022-11-28T18:39:01.524Z,80.47
2022-11-28T18:41:28.991Z,80.17
2022-11-28T18:43:57.043Z,79.82
2022-11-28T18:46:25.148Z,80.16
2022-11-28T18:48:52.142Z,79.96
2022-11-28T18:51:27.611Z,79.75
2022-11-28T18:53:55.922Z,79.41
2022-11-28T18:56:23.437Z,79.83
2022-11-28T18:58:51.785Z,79.77
2022-11-28T19:01:28.204Z,79.83
2022-11-28T19:03:58.011Z,80.07
2022-11-28T19:06:24.818Z,79.85
2022-11-28T19:09:00.201Z,79.30
2022-11-28T19:11:29.284Z,79.48
2022-11-28T19:13:56.369Z,79.45
2022-11-28T19:16:35.147Z,79.61
2022-11-28T19:19:03.661Z,78.98
2022-11-28T19:21:32.779Z,79.41
2022-11-28T19:24:00.621Z,79.42
2022-11-28T19:26:30.471Z,79.30
2022-11-28T19:28:59.848Z,79.35
2022-11-28T19:31:29.329Z,79.49
2022-11-28T19:34:02.135Z,79.28
2022-11-28T19:36:33.063Z,79.55
2022-11-28T19:38:59.861Z,80.08
2022-11-28T19:41:28.069Z,79.77
2022-11-28T19:43:55.298Z,79.82
2022-11-28T19:46:21.974Z,79.96
2022-11-28T19:48:49.500Z,79.89
2022-11-28T19:51:15.986Z,79.72
2022-11-28T19:53:43.326Z,80.06
2022-11-28T19:56:16.931Z,79.72
2022-11-28T19:58:44.357Z,79.95
2022-11-28T20:01:15.303Z,80.02
2022-11-28T20:03:42.637Z,80.13
2022-11-28T20:06:10.967Z,79.72
2022-11-28T20:08:38.821Z,79.58
2022-11-28T20:11:13.043Z,79.72
2022-11-28T20:13:40.694Z,79.71
2022-11-28T20:16:08.815Z,78.67
2022-11-28T20:18:40.948Z,78.35
2022-11-28T20:21:19.320Z,78.58
2022-11-28T20:23:51.465Z,77.71
2022-11-28T20:26:20.148Z,77.51
2022-11-28T20:28:47.580Z,77.83
2022-11-28T20:31:31.686Z,78.48
2022-11-28T20:33:58.495Z,78.00
2022-11-28T20:36:26.515Z,77.22
2022-11-28T20:38:54.346Z,77.25
2022-11-28T20:41:22.797Z,78.26
2022-11-28T20:43:49.185Z,78.75
2022-11-28T20:46:21.901Z,78.33
2022-11-28T20:48:49.567Z,79.02
2022-11-28T20:51:19.134Z,78.47
2022-11-28T20:53:45.765Z,78.23
2022-11-28T20:56:18.283Z,78.45
2022-11-28T20:58:45.717Z,78.53
2022-11-28T21:01:17.897Z,79.05
2022-11-28T21:03:44.559Z,79.04
2022-11-28T21:06:12.183Z,79.43
2022-11-28T21:08:38.846Z,79.08
2022-11-28T21:11:11.210Z,79.32
2022-11-28T21:13:38.035Z,79.41
2022-11-28T21:16:06.944Z,79.60
2022-11-28T21:18:34.211Z,79.36
2022-11-28T21:21:10.493Z,78.34
2022-11-28T21:23:38.118Z,78.41
2022-11-28T21:26:15.836Z,78.93
2022-11-28T21:28:44.763Z,78.60
2022-11-28T21:31:14.071Z,78.77
2022-11-28T21:33:40.753Z,78.72
2022-11-28T21:36:08.061Z,78.97
2022-11-28T21:38:35.438Z,79.10
2022-11-28T21:41:02.178Z,78.68
2022-11-28T21:43:29.566Z,78.53
2022-11-28T21:46:07.137Z,79.05
2022-11-28T21:48:35.550Z,78.32
2022-11-28T21:51:03.587Z,78.80
2022-11-28T21:53:31.266Z,78.79
2022-11-28T21:56:03.242Z,78.41
2022-11-28T21:58:30.656Z,78.65
2022-11-28T22:01:02.734Z,78.91
2022-11-28T22:03:30.779Z,79.20
2022-11-28T22:06:21.876Z,79.07
2022-11-28T22:08:48.949Z,78.63
2022-11-28T22:11:15.948Z,77.97
2022-11-28T22:13:45.761Z,78.00
2022-11-28T22:16:16.589Z,78.34
2022-11-28T22:18:44.408Z,78.58
2022-11-28T22:21:43.383Z,78.99
2022-11-28T22:23:58.333Z,78.63
2022-11-28T22:26:24.859Z,79.14
2022-11-28T22:28:53.944Z,78.79
2022-11-28T22:31:22.796Z,79.25
2022-11-28T22:33:50.259Z,79.25
2022-11-28T22:36:19.058Z,79.31
2022-11-28T22:38:47.509Z,79.21
2022-11-28T22:41:20.791Z,79.04
2022-11-28T22:43:54.301Z,79.30
2022-11-28T22:46:20.886Z,78.84
2022-11-28T22:48:47.811Z,78.70
2022-11-28T22:51:22.785Z,78.56
2022-11-28T22:53:56.431Z,78.76
2022-11-28T22:56:26.866Z,79.28
2022-11-28T22:58:53.728Z,79.32
2022-11-28T23:01:24.042Z,78.99
2022-11-28T23:03:51.761Z,78.73
2022-11-28T23:06:20.964Z,78.32
2022-11-28T23:08:53.857Z,78.27
2022-11-28T23:11:23.606Z,78.25
2022-11-28T23:13:51.166Z,78.39
2022-11-28T23:16:19.619Z,79.05
2022-11-28T23:18:49.816Z,78.99
2022-11-28T23:21:17.355Z,78.58
2022-11-28T23:23:45.822Z,78.65
2022-11-28T23:26:18.194Z,78.37
2022-11-28T23:28:44.999Z,78.15
2022-11-28T23:31:17.823Z,78.72
2022-11-28T23:33:45.835Z,78.73
2022-11-28T23:36:16.701Z,79.06
2022-11-28T23:38:44.477Z,78.96
2022-11-28T23:41:11.878Z,78.95
2022-11-28T23:43:38.843Z,78.88
2022-11-28T23:46:06.337Z,78.76
2022-11-28T23:48:33.529Z,78.44
2022-11-28T23:50:59.959Z,78.92
2022-11-28T23:53:26.605Z,78.89
2022-11-28T23:55:53.049Z,78.97
2022-11-28T23:58:19.584Z,78.46
